sensor_id;sensor_type;location;lat;lon;timestamp;temperature;humidity
11079;DHT22;5592;49.234;7.268;2022-08-01T00:01:54;18.50;99.90
11079;DHT22;5592;49.234;7.268;2022-08-01T00:04:20;18.40;99.90
11079;DHT22;5592;49.234;7.268;2022-08-01T00:06:45;18.30;99.90
11079;DHT22;5592;49.234;7.268;2022-08-01T00:09:11;18.20;99.90
11079;DHT22;5592;49.234;7.268;2022-08-01T00:11:39;18.10;99.90
11079;DHT22;5592;49.234;7.268;2022-08-01T00:14:07;18.00;99.90
11079;DHT22;5592;49.234;7.268;2022-08-01T00:16:35;17.90;99.90
11079;DHT22;5592;49.234;7.268;2022-08-01T00:19:00;17.90;99.90
11079;DHT22;5592;49.234;7.268;2022-08-01T00:21:26;18.00;99.90
11079;DHT22;5592;49.234;7.268;2022-08-01T00:23:52;17.90;99.90
11079;DHT22;5592;49.234;7.268;2022-08-01T00:26:17;17.80;99.90
11079;DHT22;5592;49.234;7.268;2022-08-01T00:28:46;17.70;99.90
11079;DHT22;5592;49.234;7.268;2022-08-01T00:31:12;17.60;99.90
11079;DHT22;5592;49.234;7.268;2022-08-01T00:33:37;17.50;99.90
11079;DHT22;5592;49.234;7.268;2022-08-01T00:36:03;17.30;99.90
11079;DHT22;5592;49.234;7.268;2022-08-01T00:38:29;17.30;99.90
11079;DHT22;5592;49.234;7.268;2022-08-01T00:40:55;17.20;99.90
11079;DHT22;5592;49.234;7.268;2022-08-01T00:43:21;17.00;99.90
11079;DHT22;5592;49.234;7.268;2022-08-01T00:45:47;17.00;99.90
11079;DHT22;5592;49.234;7.268;2022-08-01T00:48:12;16.90;99.90
11079;DHT22;5592;49.234;7.268;2022-08-01T00:50:38;16.90;99.90
11079;DHT22;5592;49.234;7.268;2022-08-01T00:53:05;16.80;99.90
11079;DHT22;5592;49.234;7.268;2022-08-01T00:55:31;16.80;99.90
11079;DHT22;5592;49.234;7.268;2022-08-01T00:57:57;16.80;99.90
11079;DHT22;5592;49.234;7.268;2022-08-01T01:00:24;16.70;99.90
11079;DHT22;5592;49.234;7.268;2022-08-01T01:02:50;16.60;99.90
11079;DHT22;5592;49.234;7.268;2022-08-01T01:05:16;16.60;99.90
11079;DHT22;5592;49.234;7.268;2022-08-01T01:07:59;16.50;99.90
11079;DHT22;5592;49.234;7.268;2022-08-01T01:10:46;16.50;99.90
11079;DHT22;5592;49.234;7.268;2022-08-01T01:13:31;16.40;99.90
11079;DHT22;5592;49.234;7.268;2022-08-01T01:18:34;16.30;99.90
11079;DHT22;5592;49.234;7.268;2022-08-01T01:23:51;16.10;99.90
11079;DHT22;5592;49.234;7.268;2022-08-01T01:26:52;16.10;99.90
11079;DHT22;5592;49.234;7.268;2022-08-01T01:29:34;16.00;99.90
11079;DHT22;5592;49.234;7.268;2022-08-01T01:34:33;15.90;99.90
11079;DHT22;5592;49.234;7.268;2022-08-01T01:37:01;15.90;99.90
11079;DHT22;5592;49.234;7.268;2022-08-01T01:39:29;15.80;99.90
11079;DHT22;5592;49.234;7.268;2022-08-01T01:41:56;15.80;99.90
11079;DHT22;5592;49.234;7.268;2022-08-01T01:44:24;15.80;99.90
11079;DHT22;5592;49.234;7.268;2022-08-01T01:46:51;15.70;99.90
11079;DHT22;5592;49.234;7.268;2022-08-01T01:49:21;15.60;99.90
11079;DHT22;5592;49.234;7.268;2022-08-01T01:51:48;15.60;99.90
11079;DHT22;5592;49.234;7.268;2022-08-01T01:54:15;15.60;99.90
11079;DHT22;5592;49.234;7.268;2022-08-01T01:56:41;15.60;99.90
11079;DHT22;5592;49.234;7.268;2022-08-01T01:59:19;15.50;99.90
11079;DHT22;5592;49.234;7.268;2022-08-01T02:01:51;15.40;99.90
11079;DHT22;5592;49.234;7.268;2022-08-01T02:04:18;15.40;99.90
11079;DHT22;5592;49.234;7.268;2022-08-01T02:06:46;15.30;99.90
11079;DHT22;5592;49.234;7.268;2022-08-01T02:09:15;15.30;99.90
11079;DHT22;5592;49.234;7.268;2022-08-01T02:11:42;15.20;99.90
11079;DHT22;5592;49.234;7.268;2022-08-01T02:14:09;15.20;99.90
11079;DHT22;5592;49.234;7.268;2022-08-01T02:16:37;15.10;99.90
11079;DHT22;5592;49.234;7.268;2022-08-01T02:19:05;15.20;99.90
11079;DHT22;5592;49.234;7.268;2022-08-01T02:30:23;15.20;99.90
11079;DHT22;5592;49.234;7.268;2022-08-01T02:33:02;15.20;99.90
11079;DHT22;5592;49.234;7.268;2022-08-01T02:35:33;15.20;99.90
11079;DHT22;5592;49.234;7.268;2022-08-01T02:38:05;15.10;99.90
11079;DHT22;5592;49.234;7.268;2022-08-01T02:40:33;15.10;99.90
11079;DHT22;5592;49.234;7.268;2022-08-01T02:43:01;15.20;99.90
11079;DHT22;5592;49.234;7.268;2022-08-01T02:45:28;15.20;99.90
11079;DHT22;5592;49.234;7.268;2022-08-01T02:48:00;15.10;99.90
11079;DHT22;5592;49.234;7.268;2022-08-01T02:50:28;15.00;99.90
11079;DHT22;5592;49.234;7.268;2022-08-01T02:52:55;15.00;99.90
11079;DHT22;5592;49.234;7.268;2022-08-01T02:55:22;14.90;99.90
11079;DHT22;5592;49.234;7.268;2022-08-01T02:57:50;14.90;99.90
11079;DHT22;5592;49.234;7.268;2022-08-01T03:00:18;14.90;99.90
11079;DHT22;5592;49.234;7.268;2022-08-01T03:02:45;14.90;99.90
11079;DHT22;5592;49.234;7.268;2022-08-01T03:05:14;14.90;99.90
11079;DHT22;5592;49.234;7.268;2022-08-01T03:07:41;14.80;99.90
11079;DHT22;5592;49.234;7.268;2022-08-01T03:10:08;14.80;99.90
11079;DHT22;5592;49.234;7.268;2022-08-01T03:12:35;14.80;99.90
11079;DHT22;5592;49.234;7.268;2022-08-01T03:15:03;14.70;99.90
11079;DHT22;5592;49.234;7.268;2022-08-01T03:17:30;14.70;99.90
11079;DHT22;5592;49.234;7.268;2022-08-01T03:19:58;14.70;99.90
11079;DHT22;5592;49.234;7.268;2022-08-01T03:22:26;14.60;99.90
11079;DHT22;5592;49.234;7.268;2022-08-01T03:24:53;14.60;99.90
11079;DHT22;5592;49.234;7.268;2022-08-01T03:27:23;14.60;99.90
11079;DHT22;5592;49.234;7.268;2022-08-01T03:29:51;14.70;99.90
11079;DHT22;5592;49.234;7.268;2022-08-01T03:32:18;14.60;99.90
11079;DHT22;5592;49.234;7.268;2022-08-01T03:34:45;14.60;99.90
11079;DHT22;5592;49.234;7.268;2022-08-01T03:37:17;14.60;99.90
11079;DHT22;5592;49.234;7.268;2022-08-01T03:39:55;14.50;99.90
11079;DHT22;5592;49.234;7.268;2022-08-01T03:42:27;14.50;99.90
11079;DHT22;5592;49.234;7.268;2022-08-01T03:45:04;14.40;99.90
11079;DHT22;5592;49.234;7.268;2022-08-01T03:47:33;14.40;99.90
11079;DHT22;5592;49.234;7.268;2022-08-01T03:50:02;14.40;99.90
11079;DHT22;5592;49.234;7.268;2022-08-01T03:52:30;14.40;99.90
11079;DHT22;5592;49.234;7.268;2022-08-01T03:54:59;14.40;99.90
11079;DHT22;5592;49.234;7.268;2022-08-01T03:57:28;14.40;99.90
11079;DHT22;5592;49.234;7.268;2022-08-01T03:59:57;14.40;99.90
11079;DHT22;5592;49.234;7.268;2022-08-01T04:02:24;14.40;99.90
11079;DHT22;5592;49.234;7.268;2022-08-01T04:04:50;14.50;99.90
11079;DHT22;5592;49.234;7.268;2022-08-01T04:07:28;14.60;99.90
11079;DHT22;5592;49.234;7.268;2022-08-01T04:09:54;14.70;99.90
11079;DHT22;5592;49.234;7.268;2022-08-01T04:12:20;14.70;99.90
11079;DHT22;5592;49.234;7.268;2022-08-01T04:14:46;14.80;99.90
11079;DHT22;5592;49.234;7.268;2022-08-01T04:17:12;14.80;99.90
11079;DHT22;5592;49.234;7.268;2022-08-01T04:19:38;14.90;99.90
11079;DHT22;5592;49.234;7.268;2022-08-01T04:22:04;15.00;99.90
11079;DHT22;5592;49.234;7.268;2022-08-01T04:24:32;15.10;99.90
11079;DHT22;5592;49.234;7.268;2022-08-01T04:27:00;15.20;99.90
11079;DHT22;5592;49.234;7.268;2022-08-01T04:29:27;15.30;99.90
11079;DHT22;5592;49.234;7.268;2022-08-01T04:31:55;15.30;99.90
11079;DHT22;5592;49.234;7.268;2022-08-01T04:34:23;15.50;99.90
11079;DHT22;5592;49.234;7.268;2022-08-01T04:36:52;15.60;99.90
11079;DHT22;5592;49.234;7.268;2022-08-01T04:39:20;15.80;99.90
11079;DHT22;5592;49.234;7.268;2022-08-01T04:41:49;15.90;99.90
11079;DHT22;5592;49.234;7.268;2022-08-01T04:44:16;16.10;99.90
11079;DHT22;5592;49.234;7.268;2022-08-01T04:46:42;16.20;99.90
11079;DHT22;5592;49.234;7.268;2022-08-01T04:49:10;16.40;99.90
11079;DHT22;5592;49.234;7.268;2022-08-01T04:51:48;16.50;99.90
11079;DHT22;5592;49.234;7.268;2022-08-01T04:54:14;16.70;99.90
11079;DHT22;5592;49.234;7.268;2022-08-01T04:56:40;16.90;99.90
11079;DHT22;5592;49.234;7.268;2022-08-01T04:59:07;17.00;99.90
11079;DHT22;5592;49.234;7.268;2022-08-01T05:01:51;17.20;99.90
11079;DHT22;5592;49.234;7.268;2022-08-01T05:04:22;17.30;99.90
11079;DHT22;5592;49.234;7.268;2022-08-01T05:06:48;17.40;99.90
11079;DHT22;5592;49.234;7.268;2022-08-01T05:09:14;17.50;99.90
11079;DHT22;5592;49.234;7.268;2022-08-01T05:11:39;17.70;99.90
11079;DHT22;5592;49.234;7.268;2022-08-01T05:14:05;17.80;99.90
11079;DHT22;5592;49.234;7.268;2022-08-01T05:16:32;17.90;99.90
11079;DHT22;5592;49.234;7.268;2022-08-01T05:18:57;18.00;99.90
11079;DHT22;5592;49.234;7.268;2022-08-01T05:21:23;18.00;99.90
11079;DHT22;5592;49.234;7.268;2022-08-01T05:23:48;18.00;99.90
11079;DHT22;5592;49.234;7.268;2022-08-01T05:26:14;18.10;99.90
11079;DHT22;5592;49.234;7.268;2022-08-01T05:28:42;18.20;99.90
11079;DHT22;5592;49.234;7.268;2022-08-01T05:31:08;18.30;99.90
11079;DHT22;5592;49.234;7.268;2022-08-01T05:33:34;18.30;99.90
11079;DHT22;5592;49.234;7.268;2022-08-01T05:35:59;18.30;99.90
11079;DHT22;5592;49.234;7.268;2022-08-01T05:38:25;18.40;99.90
11079;DHT22;5592;49.234;7.268;2022-08-01T05:40:51;18.50;99.90
11079;DHT22;5592;49.234;7.268;2022-08-01T05:43:17;18.60;99.90
11079;DHT22;5592;49.234;7.268;2022-08-01T05:45:42;18.70;99.90
11079;DHT22;5592;49.234;7.268;2022-08-01T05:48:09;18.70;99.90
11079;DHT22;5592;49.234;7.268;2022-08-01T05:50:35;18.70;99.90
11079;DHT22;5592;49.234;7.268;2022-08-01T05:53:01;18.90;99.90
11079;DHT22;5592;49.234;7.268;2022-08-01T05:55:26;19.10;99.90
11079;DHT22;5592;49.234;7.268;2022-08-01T05:57:52;19.20;99.90
11079;DHT22;5592;49.234;7.268;2022-08-01T06:00:17;19.40;99.90
11079;DHT22;5592;49.234;7.268;2022-08-01T06:02:43;19.60;99.90
11079;DHT22;5592;49.234;7.268;2022-08-01T06:05:09;19.80;99.90
11079;DHT22;5592;49.234;7.268;2022-08-01T06:07:35;20.10;99.90
11079;DHT22;5592;49.234;7.268;2022-08-01T06:10:01;20.30;99.90
11079;DHT22;5592;49.234;7.268;2022-08-01T06:12:33;20.50;99.90
11079;DHT22;5592;49.234;7.268;2022-08-01T06:14:58;20.80;99.90
11079;DHT22;5592;49.234;7.268;2022-08-01T06:17:24;21.00;99.90
11079;DHT22;5592;49.234;7.268;2022-08-01T06:19:50;21.30;99.90
11079;DHT22;5592;49.234;7.268;2022-08-01T06:22:15;21.50;99.90
11079;DHT22;5592;49.234;7.268;2022-08-01T06:24:41;21.60;99.90
11079;DHT22;5592;49.234;7.268;2022-08-01T06:27:06;21.70;99.90
11079;DHT22;5592;49.234;7.268;2022-08-01T06:29:32;21.70;99.90
11079;DHT22;5592;49.234;7.268;2022-08-01T06:31:58;21.60;99.90
11079;DHT22;5592;49.234;7.268;2022-08-01T06:34:24;21.60;99.90
11079;DHT22;5592;49.234;7.268;2022-08-01T06:36:49;21.70;99.90
11079;DHT22;5592;49.234;7.268;2022-08-01T06:39:15;21.70;99.90
11079;DHT22;5592;49.234;7.268;2022-08-01T06:41:41;21.80;99.90
11079;DHT22;5592;49.234;7.268;2022-08-01T06:44:07;22.00;99.90
11079;DHT22;5592;49.234;7.268;2022-08-01T06:46:33;22.10;99.90
11079;DHT22;5592;49.234;7.268;2022-08-01T06:48:59;22.40;99.90
11079;DHT22;5592;49.234;7.268;2022-08-01T06:51:25;22.60;99.90
11079;DHT22;5592;49.234;7.268;2022-08-01T06:53:50;23.00;99.90
11079;DHT22;5592;49.234;7.268;2022-08-01T06:56:16;23.80;99.90
11079;DHT22;5592;49.234;7.268;2022-08-01T06:58:44;24.80;99.90
11079;DHT22;5592;49.234;7.268;2022-08-01T07:01:09;25.70;99.90
11079;DHT22;5592;49.234;7.268;2022-08-01T07:03:35;26.90;99.90
11079;DHT22;5592;49.234;7.268;2022-08-01T07:06:02;28.10;99.90
11079;DHT22;5592;49.234;7.268;2022-08-01T07:08:28;29.10;99.90
11079;DHT22;5592;49.234;7.268;2022-08-01T07:10:54;30.80;99.90
11079;DHT22;5592;49.234;7.268;2022-08-01T07:13:19;31.90;99.90
11079;DHT22;5592;49.234;7.268;2022-08-01T07:15:48;32.60;99.90
11079;DHT22;5592;49.234;7.268;2022-08-01T07:18:14;32.80;99.90
11079;DHT22;5592;49.234;7.268;2022-08-01T07:20:39;32.70;99.90
11079;DHT22;5592;49.234;7.268;2022-08-01T07:23:05;32.10;99.90
11079;DHT22;5592;49.234;7.268;2022-08-01T07:25:30;32.10;99.90
11079;DHT22;5592;49.234;7.268;2022-08-01T07:27:56;32.80;99.90
11079;DHT22;5592;49.234;7.268;2022-08-01T07:30:22;33.20;99.90
11079;DHT22;5592;49.234;7.268;2022-08-01T07:32:48;33.40;99.90
11079;DHT22;5592;49.234;7.268;2022-08-01T07:35:13;32.80;99.90
11079;DHT22;5592;49.234;7.268;2022-08-01T07:37:39;33.00;99.90
11079;DHT22;5592;49.234;7.268;2022-08-01T07:40:06;32.80;99.90
11079;DHT22;5592;49.234;7.268;2022-08-01T07:42:32;33.70;98.90
11079;DHT22;5592;49.234;7.268;2022-08-01T07:44:57;35.10;98.20
11079;DHT22;5592;49.234;7.268;2022-08-01T07:47:24;35.70;95.40
11079;DHT22;5592;49.234;7.268;2022-08-01T07:49:50;36.10;92.70
11079;DHT22;5592;49.234;7.268;2022-08-01T07:52:16;36.10;92.20
11079;DHT22;5592;49.234;7.268;2022-08-01T07:54:41;36.10;91.30
11079;DHT22;5592;49.234;7.268;2022-08-01T07:57:07;35.70;91.20
11079;DHT22;5592;49.234;7.268;2022-08-01T07:59:33;35.60;90.90
11079;DHT22;5592;49.234;7.268;2022-08-01T08:01:59;35.20;89.70
11079;DHT22;5592;49.234;7.268;2022-08-01T08:04:25;34.40;90.50
11079;DHT22;5592;49.234;7.268;2022-08-01T08:06:51;33.20;91.50
11079;DHT22;5592;49.234;7.268;2022-08-01T08:09:18;31.50;92.80
11079;DHT22;5592;49.234;7.268;2022-08-01T08:11:45;31.10;94.60
11079;DHT22;5592;49.234;7.268;2022-08-01T08:14:11;31.90;93.90
11079;DHT22;5592;49.234;7.268;2022-08-01T08:16:37;32.50;92.30
11079;DHT22;5592;49.234;7.268;2022-08-01T08:19:03;32.20;93.10
11079;DHT22;5592;49.234;7.268;2022-08-01T08:21:30;31.80;93.30
11079;DHT22;5592;49.234;7.268;2022-08-01T08:23:56;31.40;93.80
11079;DHT22;5592;49.234;7.268;2022-08-01T08:26:40;30.90;94.90
11079;DHT22;5592;49.234;7.268;2022-08-01T08:29:06;30.50;94.80
11079;DHT22;5592;49.234;7.268;2022-08-01T08:31:32;29.80;95.80
11079;DHT22;5592;49.234;7.268;2022-08-01T08:33:59;29.60;96.30
11079;DHT22;5592;49.234;7.268;2022-08-01T08:36:24;29.60;97.60
11079;DHT22;5592;49.234;7.268;2022-08-01T08:38:50;30.60;96.80
11079;DHT22;5592;49.234;7.268;2022-08-01T08:41:16;31.60;95.10
11079;DHT22;5592;49.234;7.268;2022-08-01T08:43:41;32.10;94.40
11079;DHT22;5592;49.234;7.268;2022-08-01T08:46:08;32.00;94.20
11079;DHT22;5592;49.234;7.268;2022-08-01T08:48:34;31.70;94.10
11079;DHT22;5592;49.234;7.268;2022-08-01T08:51:02;31.20;94.80
11079;DHT22;5592;49.234;7.268;2022-08-01T08:53:29;30.60;95.20
11079;DHT22;5592;49.234;7.268;2022-08-01T08:55:57;30.40;95.20
11079;DHT22;5592;49.234;7.268;2022-08-01T08:58:25;29.70;96.00
11079;DHT22;5592;49.234;7.268;2022-08-01T09:00:53;29.20;96.80
11079;DHT22;5592;49.234;7.268;2022-08-01T09:03:19;28.90;97.60
11079;DHT22;5592;49.234;7.268;2022-08-01T09:05:45;28.40;98.40
11079;DHT22;5592;49.234;7.268;2022-08-01T09:08:10;28.20;99.40
11079;DHT22;5592;49.234;7.268;2022-08-01T09:10:37;28.10;99.90
11079;DHT22;5592;49.234;7.268;2022-08-01T09:13:09;28.30;99.30
11079;DHT22;5592;49.234;7.268;2022-08-01T09:15:44;28.60;99.90
11079;DHT22;5592;49.234;7.268;2022-08-01T09:18:33;29.00;99.90
11079;DHT22;5592;49.234;7.268;2022-08-01T09:21:19;29.30;99.50
11079;DHT22;5592;49.234;7.268;2022-08-01T09:23:52;29.50;99.60
11079;DHT22;5592;49.234;7.268;2022-08-01T09:26:32;29.60;99.40
11079;DHT22;5592;49.234;7.268;2022-08-01T09:28:58;29.60;98.30
11079;DHT22;5592;49.234;7.268;2022-08-01T09:31:27;29.60;98.70
11079;DHT22;5592;49.234;7.268;2022-08-01T09:34:00;29.40;98.50
11079;DHT22;5592;49.234;7.268;2022-08-01T09:36:54;29.20;98.90
11079;DHT22;5592;49.234;7.268;2022-08-01T09:39:23;28.80;99.30
11079;DHT22;5592;49.234;7.268;2022-08-01T09:41:50;28.70;98.80
11079;DHT22;5592;49.234;7.268;2022-08-01T09:44:17;28.90;99.50
11079;DHT22;5592;49.234;7.268;2022-08-01T09:46:57;29.20;98.60
11079;DHT22;5592;49.234;7.268;2022-08-01T09:49:33;29.30;98.30
11079;DHT22;5592;49.234;7.268;2022-08-01T09:52:16;29.20;97.80
11079;DHT22;5592;49.234;7.268;2022-08-01T09:54:44;28.50;99.20
11079;DHT22;5592;49.234;7.268;2022-08-01T09:57:18;28.00;99.90
11079;DHT22;5592;49.234;7.268;2022-08-01T09:59:46;28.00;99.90
11079;DHT22;5592;49.234;7.268;2022-08-01T10:02:25;28.00;99.90
11079;DHT22;5592;49.234;7.268;2022-08-01T10:04:51;28.40;99.90
11079;DHT22;5592;49.234;7.268;2022-08-01T10:07:18;29.10;99.50
11079;DHT22;5592;49.234;7.268;2022-08-01T10:09:45;29.70;98.70
11079;DHT22;5592;49.234;7.268;2022-08-01T10:12:17;30.60;98.50
11079;DHT22;5592;49.234;7.268;2022-08-01T10:14:46;32.50;96.70
11079;DHT22;5592;49.234;7.268;2022-08-01T10:17:14;32.90;95.60
11079;DHT22;5592;49.234;7.268;2022-08-01T10:19:41;33.50;94.60
11079;DHT22;5592;49.234;7.268;2022-08-01T10:22:12;33.20;93.80
11079;DHT22;5592;49.234;7.268;2022-08-01T10:24:46;33.00;94.40
11079;DHT22;5592;49.234;7.268;2022-08-01T10:27:15;33.10;93.80
11079;DHT22;5592;49.234;7.268;2022-08-01T10:32:07;32.60;93.40
11079;DHT22;5592;49.234;7.268;2022-08-01T10:34:36;31.90;93.90
11079;DHT22;5592;49.234;7.268;2022-08-01T10:37:03;31.50;94.40
11079;DHT22;5592;49.234;7.268;2022-08-01T10:39:30;31.30;94.60
11079;DHT22;5592;49.234;7.268;2022-08-01T10:41:56;31.70;94.40
11079;DHT22;5592;49.234;7.268;2022-08-01T10:44:24;32.30;94.30
11079;DHT22;5592;49.234;7.268;2022-08-01T10:46:54;32.90;93.20
11079;DHT22;5592;49.234;7.268;2022-08-01T10:49:22;33.30;93.20
11079;DHT22;5592;49.234;7.268;2022-08-01T10:51:49;33.30;92.40
11079;DHT22;5592;49.234;7.268;2022-08-01T10:54:15;33.10;92.00
11079;DHT22;5592;49.234;7.268;2022-08-01T10:56:46;32.90;92.60
11079;DHT22;5592;49.234;7.268;2022-08-01T10:59:30;33.00;92.30
11079;DHT22;5592;49.234;7.268;2022-08-01T11:02:01;33.80;92.80
11079;DHT22;5592;49.234;7.268;2022-08-01T11:04:54;34.50;91.60
11079;DHT22;5592;49.234;7.268;2022-08-01T11:07:46;33.80;91.00
11079;DHT22;5592;49.234;7.268;2022-08-01T11:10:27;32.70;91.70
11079;DHT22;5592;49.234;7.268;2022-08-01T11:12:55;32.30;92.30
11079;DHT22;5592;49.234;7.268;2022-08-01T11:15:22;31.80;92.20
11079;DHT22;5592;49.234;7.268;2022-08-01T11:17:51;31.50;92.60
11079;DHT22;5592;49.234;7.268;2022-08-01T11:20:29;30.90;92.90
11079;DHT22;5592;49.234;7.268;2022-08-01T11:30:50;30.80;93.90
11079;DHT22;5592;49.234;7.268;2022-08-01T11:33:18;30.90;93.40
11079;DHT22;5592;49.234;7.268;2022-08-01T11:38:45;30.80;94.30
11079;DHT22;5592;49.234;7.268;2022-08-01T11:41:20;30.50;94.20
11079;DHT22;5592;49.234;7.268;2022-08-01T11:46:55;29.90;94.10
11079;DHT22;5592;49.234;7.268;2022-08-01T11:54:33;29.50;95.00
11079;DHT22;5592;49.234;7.268;2022-08-01T11:57:01;29.30;95.20
11079;DHT22;5592;49.234;7.268;2022-08-01T11:59:36;28.90;95.40
11079;DHT22;5592;49.234;7.268;2022-08-01T12:02:02;28.70;95.20
11079;DHT22;5592;49.234;7.268;2022-08-01T12:04:45;28.60;96.20
11079;DHT22;5592;49.234;7.268;2022-08-01T12:07:14;28.70;96.70
11079;DHT22;5592;49.234;7.268;2022-08-01T12:09:40;28.80;95.90
11079;DHT22;5592;49.234;7.268;2022-08-01T12:12:06;29.00;95.80
11079;DHT22;5592;49.234;7.268;2022-08-01T12:14:32;29.20;95.60
11079;DHT22;5592;49.234;7.268;2022-08-01T12:16:57;29.10;96.50
11079;DHT22;5592;49.234;7.268;2022-08-01T12:19:24;29.20;96.10
11079;DHT22;5592;49.234;7.268;2022-08-01T12:22:10;29.00;95.60
11079;DHT22;5592;49.234;7.268;2022-08-01T12:24:37;28.60;96.30
11079;DHT22;5592;49.234;7.268;2022-08-01T12:27:04;28.40;96.60
11079;DHT22;5592;49.234;7.268;2022-08-01T12:29:41;28.30;97.10
11079;DHT22;5592;49.234;7.268;2022-08-01T12:32:30;28.30;96.30
11079;DHT22;5592;49.234;7.268;2022-08-01T12:35:05;28.10;96.10
11079;DHT22;5592;49.234;7.268;2022-08-01T12:37:34;28.00;96.90
11079;DHT22;5592;49.234;7.268;2022-08-01T12:40:00;28.20;97.60
11079;DHT22;5592;49.234;7.268;2022-08-01T12:42:27;28.80;97.70
11079;DHT22;5592;49.234;7.268;2022-08-01T12:44:53;28.90;97.20
11079;DHT22;5592;49.234;7.268;2022-08-01T12:47:20;29.10;97.00
11079;DHT22;5592;49.234;7.268;2022-08-01T12:49:47;29.30;96.30
11079;DHT22;5592;49.234;7.268;2022-08-01T12:52:13;29.50;95.80
11079;DHT22;5592;49.234;7.268;2022-08-01T12:55:09;29.50;96.00
11079;DHT22;5592;49.234;7.268;2022-08-01T12:57:37;29.60;95.90
11079;DHT22;5592;49.234;7.268;2022-08-01T13:02:36;29.80;95.50
11079;DHT22;5592;49.234;7.268;2022-08-01T13:05:03;29.70;95.90
11079;DHT22;5592;49.234;7.268;2022-08-01T13:10:11;30.10;95.30
11079;DHT22;5592;49.234;7.268;2022-08-01T13:12:42;29.80;95.40
11079;DHT22;5592;49.234;7.268;2022-08-01T13:17:52;29.40;95.90
11079;DHT22;5592;49.234;7.268;2022-08-01T13:20:26;29.50;95.70
11079;DHT22;5592;49.234;7.268;2022-08-01T13:22:53;29.60;95.80
11079;DHT22;5592;49.234;7.268;2022-08-01T13:25:19;29.90;95.50
11079;DHT22;5592;49.234;7.268;2022-08-01T13:27:44;29.90;94.40
11079;DHT22;5592;49.234;7.268;2022-08-01T13:30:19;29.40;95.60
11079;DHT22;5592;49.234;7.268;2022-08-01T13:33:01;29.30;95.30
11079;DHT22;5592;49.234;7.268;2022-08-01T13:35:27;29.10;94.80
11079;DHT22;5592;49.234;7.268;2022-08-01T13:37:52;28.90;95.00
11079;DHT22;5592;49.234;7.268;2022-08-01T13:40:26;28.90;95.60
11079;DHT22;5592;49.234;7.268;2022-08-01T13:42:52;29.00;95.50
11079;DHT22;5592;49.234;7.268;2022-08-01T13:45:19;28.90;96.20
11079;DHT22;5592;49.234;7.268;2022-08-01T13:47:45;29.10;95.70
11079;DHT22;5592;49.234;7.268;2022-08-01T13:50:11;29.40;95.40
11079;DHT22;5592;49.234;7.268;2022-08-01T13:52:40;29.60;95.30
11079;DHT22;5592;49.234;7.268;2022-08-01T13:55:06;29.80;94.90
11079;DHT22;5592;49.234;7.268;2022-08-01T13:57:32;30.00;93.90
11079;DHT22;5592;49.234;7.268;2022-08-01T13:59:57;29.90;94.10
11079;DHT22;5592;49.234;7.268;2022-08-01T14:02:26;29.70;94.50
11079;DHT22;5592;49.234;7.268;2022-08-01T14:04:53;29.40;94.70
11079;DHT22;5592;49.234;7.268;2022-08-01T14:07:19;29.10;95.30
11079;DHT22;5592;49.234;7.268;2022-08-01T14:09:45;28.70;95.60
11079;DHT22;5592;49.234;7.268;2022-08-01T14:12:11;28.50;95.80
11079;DHT22;5592;49.234;7.268;2022-08-01T14:14:36;28.40;96.00
11079;DHT22;5592;49.234;7.268;2022-08-01T14:17:03;28.20;94.80
11079;DHT22;5592;49.234;7.268;2022-08-01T14:19:30;28.00;95.50
11079;DHT22;5592;49.234;7.268;2022-08-01T14:21:56;27.90;95.40
11079;DHT22;5592;49.234;7.268;2022-08-01T14:24:22;27.70;95.80
11079;DHT22;5592;49.234;7.268;2022-08-01T14:26:48;27.70;95.90
11079;DHT22;5592;49.234;7.268;2022-08-01T14:29:14;27.80;95.70
11079;DHT22;5592;49.234;7.268;2022-08-01T14:31:40;27.90;96.60
11079;DHT22;5592;49.234;7.268;2022-08-01T14:34:08;28.10;96.10
11079;DHT22;5592;49.234;7.268;2022-08-01T14:36:34;28.10;95.90
11079;DHT22;5592;49.234;7.268;2022-08-01T14:39:00;27.90;96.30
11079;DHT22;5592;49.234;7.268;2022-08-01T14:41:26;28.00;95.80
11079;DHT22;5592;49.234;7.268;2022-08-01T14:43:51;27.90;96.30
11079;DHT22;5592;49.234;7.268;2022-08-01T14:46:17;28.00;96.50
11079;DHT22;5592;49.234;7.268;2022-08-01T14:48:42;27.90;96.90
11079;DHT22;5592;49.234;7.268;2022-08-01T14:51:08;27.80;96.50
11079;DHT22;5592;49.234;7.268;2022-08-01T14:53:34;27.90;96.60
11079;DHT22;5592;49.234;7.268;2022-08-01T14:56:02;28.20;96.60
11079;DHT22;5592;49.234;7.268;2022-08-01T14:58:28;28.20;96.30
11079;DHT22;5592;49.234;7.268;2022-08-01T15:00:54;28.10;96.00
11079;DHT22;5592;49.234;7.268;2022-08-01T15:03:20;28.10;95.80
11079;DHT22;5592;49.234;7.268;2022-08-01T15:05:46;28.10;96.20
11079;DHT22;5592;49.234;7.268;2022-08-01T15:08:12;28.10;96.20
11079;DHT22;5592;49.234;7.268;2022-08-01T15:10:37;28.10;96.20
11079;DHT22;5592;49.234;7.268;2022-08-01T15:13:03;28.10;96.30
11079;DHT22;5592;49.234;7.268;2022-08-01T15:15:29;28.10;95.90
11079;DHT22;5592;49.234;7.268;2022-08-01T15:17:55;27.90;96.20
11079;DHT22;5592;49.234;7.268;2022-08-01T15:20:20;27.70;96.40
11079;DHT22;5592;49.234;7.268;2022-08-01T15:22:46;27.50;96.80
11079;DHT22;5592;49.234;7.268;2022-08-01T15:25:13;27.20;97.00
11079;DHT22;5592;49.234;7.268;2022-08-01T15:27:38;27.20;96.70
11079;DHT22;5592;49.234;7.268;2022-08-01T15:30:04;27.10;97.30
11079;DHT22;5592;49.234;7.268;2022-08-01T15:32:30;26.80;97.40
11079;DHT22;5592;49.234;7.268;2022-08-01T15:34:56;26.60;97.70
11079;DHT22;5592;49.234;7.268;2022-08-01T15:37:22;26.50;97.90
11079;DHT22;5592;49.234;7.268;2022-08-01T15:39:48;26.40;98.50
11079;DHT22;5592;49.234;7.268;2022-08-01T15:42:15;26.40;98.70
11079;DHT22;5592;49.234;7.268;2022-08-01T15:44:41;26.10;98.80
11079;DHT22;5592;49.234;7.268;2022-08-01T15:47:10;26.10;99.30
11079;DHT22;5592;49.234;7.268;2022-08-01T15:49:37;26.10;99.30
11079;DHT22;5592;49.234;7.268;2022-08-01T15:52:06;26.20;99.30
11079;DHT22;5592;49.234;7.268;2022-08-01T15:54:32;26.10;99.30
11079;DHT22;5592;49.234;7.268;2022-08-01T15:56:59;25.90;99.30
11079;DHT22;5592;49.234;7.268;2022-08-01T15:59:27;25.80;99.70
11079;DHT22;5592;49.234;7.268;2022-08-01T16:01:52;25.90;99.80
11079;DHT22;5592;49.234;7.268;2022-08-01T16:04:18;25.90;99.90
11079;DHT22;5592;49.234;7.268;2022-08-01T16:06:45;25.90;99.90
11079;DHT22;5592;49.234;7.268;2022-08-01T16:09:20;26.10;99.90
11079;DHT22;5592;49.234;7.268;2022-08-01T16:11:45;26.20;99.90
11079;DHT22;5592;49.234;7.268;2022-08-01T16:14:11;26.30;99.90
11079;DHT22;5592;49.234;7.268;2022-08-01T16:16:37;26.40;99.90
11079;DHT22;5592;49.234;7.268;2022-08-01T16:19:02;26.40;99.90
11079;DHT22;5592;49.234;7.268;2022-08-01T16:21:29;26.50;99.90
11079;DHT22;5592;49.234;7.268;2022-08-01T16:23:55;26.60;99.90
11079;DHT22;5592;49.234;7.268;2022-08-01T16:26:21;26.60;99.90
11079;DHT22;5592;49.234;7.268;2022-08-01T16:28:50;26.60;99.90
11079;DHT22;5592;49.234;7.268;2022-08-01T16:31:18;26.60;99.90
11079;DHT22;5592;49.234;7.268;2022-08-01T16:33:44;26.50;99.90
11079;DHT22;5592;49.234;7.268;2022-08-01T16:36:10;26.40;99.90
11079;DHT22;5592;49.234;7.268;2022-08-01T16:38:36;26.50;99.90